Gainesville, Georgia
Current Conditions -  °F | °C
As of 1:53 PM on Monday 20 Oct 2014 (Local Time) from KGVL Reporting Station
Clear Clear  
Wind Chill: 68°   Ceiling: Unl
Heat Index: 68°   Visibility: 10mi
Dew Point: 49°   Wind: 8mph
Humidity: 50%   Direction: 280°W
Pressure: 30.07"   Gusts: NA
Location:  34.3°N, 83.82°W
Report Text: KGVL 201753Z AUTO 28007KT 10SM CLR 20/09 A3007 RMK AO2 SLP176 T02000094 10200 20083 58026
Loading
Personal Weather Stations






























Interactive Weather Map New forecast layout! Learn more

10-Day Weather Forecast

Advertisements
Track Severe Weather on mobile